sensor_id;sensor_type;location;lat;lon;timestamp;P1;durP1;ratioP1;P2;durP2;ratioP2
36259;SDS011;22296;50.824;5.644;2023-03-14T00:00:59;2.53;;;1.40;;
36259;SDS011;22296;50.824;5.644;2023-03-14T00:03:27;2.65;;;1.70;;
36259;SDS011;22296;50.824;5.644;2023-03-14T00:08:22;2.47;;;1.10;;
36259;SDS011;22296;50.824;5.644;2023-03-14T00:10:51;3.22;;;1.33;;
36259;SDS011;22296;50.824;5.644;2023-03-14T00:13:17;2.13;;;1.30;;
36259;SDS011;22296;50.824;5.644;2023-03-14T00:15:44;2.42;;;1.38;;
36259;SDS011;22296;50.824;5.644;2023-03-14T00:18:11;3.40;;;1.30;;
36259;SDS011;22296;50.824;5.644;2023-03-14T00:20:38;3.08;;;1.50;;
36259;SDS011;22296;50.824;5.644;2023-03-14T00:23:04;2.00;;;1.30;;
36259;SDS011;22296;50.824;5.644;2023-03-14T00:25:32;2.80;;;1.23;;
36259;SDS011;22296;50.824;5.644;2023-03-14T00:27:58;4.00;;;1.40;;
36259;SDS011;22296;50.824;5.644;2023-03-14T00:30:25;2.45;;;1.20;;
36259;SDS011;22296;50.824;5.644;2023-03-14T00:32:52;2.53;;;1.23;;
36259;SDS011;22296;50.824;5.644;2023-03-14T00:35:18;2.15;;;1.13;;
36259;SDS011;22296;50.824;5.644;2023-03-14T00:37:45;1.75;;;1.20;;
36259;SDS011;22296;50.824;5.644;2023-03-14T00:40:17;2.75;;;1.20;;
36259;SDS011;22296;50.824;5.644;2023-03-14T00:42:44;2.45;;;1.30;;
36259;SDS011;22296;50.824;5.644;2023-03-14T00:45:10;2.67;;;1.10;;
36259;SDS011;22296;50.824;5.644;2023-03-14T00:47:37;2.10;;;1.10;;
36259;SDS011;22296;50.824;5.644;2023-03-14T00:50:04;3.17;;;1.20;;
36259;SDS011;22296;50.824;5.644;2023-03-14T00:52:31;4.25;;;1.38;;
36259;SDS011;22296;50.824;5.644;2023-03-14T00:54:58;3.25;;;1.10;;
36259;SDS011;22296;50.824;5.644;2023-03-14T00:57:25;2.50;;;1.05;;
36259;SDS011;22296;50.824;5.644;2023-03-14T00:59:52;1.70;;;0.90;;
36259;SDS011;22296;50.824;5.644;2023-03-14T01:02:19;1.67;;;1.08;;
36259;SDS011;22296;50.824;5.644;2023-03-14T01:04:48;2.95;;;1.10;;
36259;SDS011;22296;50.824;5.644;2023-03-14T01:07:15;3.28;;;1.13;;
36259;SDS011;22296;50.824;5.644;2023-03-14T01:09:43;1.95;;;1.10;;
36259;SDS011;22296;50.824;5.644;2023-03-14T01:12:09;1.75;;;1.00;;
36259;SDS011;22296;50.824;5.644;2023-03-14T01:14:36;2.30;;;1.05;;
36259;SDS011;22296;50.824;5.644;2023-03-14T01:17:03;2.35;;;1.10;;
36259;SDS011;22296;50.824;5.644;2023-03-14T01:19:30;1.67;;;1.00;;
36259;SDS011;22296;50.824;5.644;2023-03-14T01:21:58;1.88;;;1.08;;
36259;SDS011;22296;50.824;5.644;2023-03-14T01:24:24;1.95;;;1.13;;
36259;SDS011;22296;50.824;5.644;2023-03-14T01:26:51;2.72;;;1.10;;
36259;SDS011;22296;50.824;5.644;2023-03-14T01:29:18;2.90;;;1.05;;
36259;SDS011;22296;50.824;5.644;2023-03-14T01:31:45;2.53;;;0.98;;
36259;SDS011;22296;50.824;5.644;2023-03-14T01:34:12;2.30;;;1.05;;
36259;SDS011;22296;50.824;5.644;2023-03-14T01:36:39;1.75;;;1.15;;
36259;SDS011;22296;50.824;5.644;2023-03-14T01:39:06;1.30;;;0.70;;
36259;SDS011;22296;50.824;5.644;2023-03-14T01:41:34;1.38;;;0.90;;
36259;SDS011;22296;50.824;5.644;2023-03-14T01:44:00;2.42;;;1.10;;
36259;SDS011;22296;50.824;5.644;2023-03-14T01:46:38;1.90;;;0.98;;
36259;SDS011;22296;50.824;5.644;2023-03-14T01:49:27;2.13;;;1.00;;
36259;SDS011;22296;50.824;5.644;2023-03-14T01:55:27;4.10;;;0.87;;
36259;SDS011;22296;50.824;5.644;2023-03-14T01:57:51;2.28;;;0.90;;
36259;SDS011;22296;50.824;5.644;2023-03-14T02:00:24;3.50;;;0.98;;
36259;SDS011;22296;50.824;5.644;2023-03-14T02:02:52;1.85;;;0.88;;
36259;SDS011;22296;50.824;5.644;2023-03-14T02:05:24;1.67;;;0.90;;
36259;SDS011;22296;50.824;5.644;2023-03-14T02:08:01;2.95;;;1.02;;
36259;SDS011;22296;50.824;5.644;2023-03-14T02:10:40;2.25;;;1.10;;
36259;SDS011;22296;50.824;5.644;2023-03-14T02:13:11;1.98;;;0.90;;
36259;SDS011;22296;50.824;5.644;2023-03-14T02:15:44;2.00;;;0.93;;
36259;SDS011;22296;50.824;5.644;2023-03-14T02:18:21;1.63;;;0.82;;
36259;SDS011;22296;50.824;5.644;2023-03-14T02:21:12;1.95;;;1.20;;
36259;SDS011;22296;50.824;5.644;2023-03-14T02:23:57;2.58;;;1.00;;
36259;SDS011;22296;50.824;5.644;2023-03-14T02:27:00;3.03;;;1.00;;
36259;SDS011;22296;50.824;5.644;2023-03-14T02:29:47;1.23;;;1.00;;
36259;SDS011;22296;50.824;5.644;2023-03-14T02:32:16;2.25;;;0.93;;
36259;SDS011;22296;50.824;5.644;2023-03-14T02:34:45;2.03;;;0.85;;
36259;SDS011;22296;50.824;5.644;2023-03-14T02:37:17;3.42;;;0.93;;
36259;SDS011;22296;50.824;5.644;2023-03-14T02:39:47;1.55;;;0.80;;
36259;SDS011;22296;50.824;5.644;2023-03-14T02:42:16;3.30;;;1.10;;
36259;SDS011;22296;50.824;5.644;2023-03-14T02:44:51;2.17;;;0.90;;
36259;SDS011;22296;50.824;5.644;2023-03-14T02:47:37;2.72;;;1.00;;
36259;SDS011;22296;50.824;5.644;2023-03-14T02:50:10;2.95;;;1.00;;
36259;SDS011;22296;50.824;5.644;2023-03-14T02:52:40;2.15;;;0.90;;
36259;SDS011;22296;50.824;5.644;2023-03-14T02:55:07;1.80;;;0.82;;
36259;SDS011;22296;50.824;5.644;2023-03-14T02:57:36;2.08;;;0.88;;
36259;SDS011;22296;50.824;5.644;2023-03-14T03:00:03;2.05;;;0.90;;
36259;SDS011;22296;50.824;5.644;2023-03-14T03:02:34;2.30;;;1.05;;
36259;SDS011;22296;50.824;5.644;2023-03-14T03:05:01;2.40;;;0.90;;
36259;SDS011;22296;50.824;5.644;2023-03-14T03:07:28;2.70;;;0.93;;
36259;SDS011;22296;50.824;5.644;2023-03-14T03:09:56;2.85;;;0.90;;
36259;SDS011;22296;50.824;5.644;2023-03-14T03:12:23;1.95;;;0.90;;
36259;SDS011;22296;50.824;5.644;2023-03-14T03:14:49;2.63;;;0.95;;
36259;SDS011;22296;50.824;5.644;2023-03-14T03:17:16;2.42;;;0.80;;
36259;SDS011;22296;50.824;5.644;2023-03-14T03:19:43;2.03;;;1.00;;
36259;SDS011;22296;50.824;5.644;2023-03-14T03:22:10;1.80;;;0.90;;
36259;SDS011;22296;50.824;5.644;2023-03-14T03:24:39;3.85;;;1.10;;
36259;SDS011;22296;50.824;5.644;2023-03-14T03:27:06;2.00;;;0.93;;
36259;SDS011;22296;50.824;5.644;2023-03-14T03:29:34;2.80;;;0.93;;
36259;SDS011;22296;50.824;5.644;2023-03-14T03:32:01;2.67;;;0.90;;
36259;SDS011;22296;50.824;5.644;2023-03-14T03:34:28;2.58;;;0.73;;
36259;SDS011;22296;50.824;5.644;2023-03-14T03:36:56;2.83;;;1.00;;
36259;SDS011;22296;50.824;5.644;2023-03-14T03:39:24;1.73;;;0.90;;
36259;SDS011;22296;50.824;5.644;2023-03-14T03:41:51;3.10;;;1.30;;
36259;SDS011;22296;50.824;5.644;2023-03-14T03:44:19;2.92;;;1.30;;
36259;SDS011;22296;50.824;5.644;2023-03-14T03:46:46;1.17;;;0.70;;
36259;SDS011;22296;50.824;5.644;2023-03-14T03:49:12;1.98;;;0.93;;
36259;SDS011;22296;50.824;5.644;2023-03-14T03:51:39;2.10;;;0.90;;
36259;SDS011;22296;50.824;5.644;2023-03-14T03:54:07;2.30;;;0.77;;
36259;SDS011;22296;50.824;5.644;2023-03-14T03:56:34;1.85;;;0.75;;
36259;SDS011;22296;50.824;5.644;2023-03-14T03:59:00;2.00;;;0.70;;
36259;SDS011;22296;50.824;5.644;2023-03-14T04:01:27;2.55;;;0.60;;
36259;SDS011;22296;50.824;5.644;2023-03-14T04:03:57;1.40;;;0.63;;
36259;SDS011;22296;50.824;5.644;2023-03-14T04:06:25;1.75;;;0.90;;
36259;SDS011;22296;50.824;5.644;2023-03-14T04:08:54;2.42;;;0.77;;
36259;SDS011;22296;50.824;5.644;2023-03-14T04:11:31;1.80;;;0.95;;
36259;SDS011;22296;50.824;5.644;2023-03-14T04:14:33;2.15;;;0.85;;
36259;SDS011;22296;50.824;5.644;2023-03-14T04:17:08;2.00;;;0.80;;
36259;SDS011;22296;50.824;5.644;2023-03-14T04:19:35;3.47;;;0.90;;
36259;SDS011;22296;50.824;5.644;2023-03-14T04:22:03;3.72;;;0.70;;
36259;SDS011;22296;50.824;5.644;2023-03-14T04:24:35;1.73;;;0.60;;
36259;SDS011;22296;50.824;5.644;2023-03-14T04:27:02;1.30;;;0.60;;
36259;SDS011;22296;50.824;5.644;2023-03-14T04:29:30;2.30;;;0.90;;
36259;SDS011;22296;50.824;5.644;2023-03-14T04:31:57;1.98;;;0.80;;
36259;SDS011;22296;50.824;5.644;2023-03-14T04:34:24;1.42;;;0.70;;
36259;SDS011;22296;50.824;5.644;2023-03-14T04:39:28;1.40;;;0.60;;
36259;SDS011;22296;50.824;5.644;2023-03-14T04:42:05;1.55;;;0.50;;
36259;SDS011;22296;50.824;5.644;2023-03-14T04:44:35;3.40;;;0.60;;
36259;SDS011;22296;50.824;5.644;2023-03-14T04:47:02;1.73;;;0.70;;
36259;SDS011;22296;50.824;5.644;2023-03-14T04:49:29;1.20;;;0.70;;
36259;SDS011;22296;50.824;5.644;2023-03-14T04:51:56;1.20;;;0.50;;
36259;SDS011;22296;50.824;5.644;2023-03-14T04:54:25;0.90;;;0.47;;
36259;SDS011;22296;50.824;5.644;2023-03-14T04:56:56;1.58;;;0.50;;
36259;SDS011;22296;50.824;5.644;2023-03-14T04:59:24;1.90;;;0.55;;
36259;SDS011;22296;50.824;5.644;2023-03-14T05:01:54;2.00;;;0.50;;
36259;SDS011;22296;50.824;5.644;2023-03-14T05:04:37;1.40;;;0.57;;
36259;SDS011;22296;50.824;5.644;2023-03-14T05:07:16;1.77;;;0.47;;
36259;SDS011;22296;50.824;5.644;2023-03-14T05:10:06;1.50;;;0.45;;
36259;SDS011;22296;50.824;5.644;2023-03-14T05:12:52;2.67;;;1.17;;
36259;SDS011;22296;50.824;5.644;2023-03-14T05:15:39;1.33;;;0.60;;
36259;SDS011;22296;50.824;5.644;2023-03-14T05:18:26;1.45;;;0.60;;
36259;SDS011;22296;50.824;5.644;2023-03-14T05:21:09;1.45;;;0.50;;
36259;SDS011;22296;50.824;5.644;2023-03-14T05:24:08;1.67;;;0.60;;
36259;SDS011;22296;50.824;5.644;2023-03-14T05:30:19;1.27;;;0.60;;
36259;SDS011;22296;50.824;5.644;2023-03-14T05:33:17;0.77;;;0.40;;
36259;SDS011;22296;50.824;5.644;2023-03-14T05:36:16;0.98;;;0.50;;
36259;SDS011;22296;50.824;5.644;2023-03-14T05:39:15;1.30;;;0.50;;
36259;SDS011;22296;50.824;5.644;2023-03-14T05:41:59;2.40;;;0.50;;
36259;SDS011;22296;50.824;5.644;2023-03-14T05:44:43;0.73;;;0.40;;
36259;SDS011;22296;50.824;5.644;2023-03-14T05:47:29;1.25;;;0.40;;
36259;SDS011;22296;50.824;5.644;2023-03-14T05:50:19;1.20;;;0.40;;
36259;SDS011;22296;50.824;5.644;2023-03-14T05:53:07;0.80;;;0.53;;
36259;SDS011;22296;50.824;5.644;2023-03-14T05:55:43;0.40;;;0.30;;
36259;SDS011;22296;50.824;5.644;2023-03-14T05:58:18;1.40;;;0.20;;
36259;SDS011;22296;50.824;5.644;2023-03-14T06:00:45;2.45;;;0.63;;
36259;SDS011;22296;50.824;5.644;2023-03-14T06:03:32;0.65;;;0.40;;
36259;SDS011;22296;50.824;5.644;2023-03-14T06:05:59;0.90;;;0.30;;
36259;SDS011;22296;50.824;5.644;2023-03-14T06:08:26;0.82;;;0.40;;
36259;SDS011;22296;50.824;5.644;2023-03-14T06:10:54;0.80;;;0.50;;
36259;SDS011;22296;50.824;5.644;2023-03-14T06:13:26;1.17;;;0.50;;
36259;SDS011;22296;50.824;5.644;2023-03-14T06:15:53;0.85;;;0.43;;
36259;SDS011;22296;50.824;5.644;2023-03-14T06:18:20;0.88;;;0.30;;
36259;SDS011;22296;50.824;5.644;2023-03-14T06:20:47;1.23;;;0.47;;
36259;SDS011;22296;50.824;5.644;2023-03-14T06:23:22;1.10;;;0.50;;
36259;SDS011;22296;50.824;5.644;2023-03-14T06:25:49;2.45;;;0.80;;
36259;SDS011;22296;50.824;5.644;2023-03-14T06:28:16;1.33;;;0.50;;
36259;SDS011;22296;50.824;5.644;2023-03-14T06:30:43;1.17;;;0.40;;
36259;SDS011;22296;50.824;5.644;2023-03-14T06:33:12;3.05;;;0.50;;
36259;SDS011;22296;50.824;5.644;2023-03-14T06:35:40;2.20;;;0.40;;
36259;SDS011;22296;50.824;5.644;2023-03-14T06:38:07;1.98;;;0.52;;
36259;SDS011;22296;50.824;5.644;2023-03-14T06:40:34;1.83;;;0.45;;
36259;SDS011;22296;50.824;5.644;2023-03-14T06:43:07;1.70;;;0.40;;
36259;SDS011;22296;50.824;5.644;2023-03-14T06:45:35;1.25;;;0.50;;
36259;SDS011;22296;50.824;5.644;2023-03-14T06:48:03;0.88;;;0.32;;
36259;SDS011;22296;50.824;5.644;2023-03-14T06:50:41;0.83;;;0.40;;
36259;SDS011;22296;50.824;5.644;2023-03-14T06:53:09;0.80;;;0.50;;
36259;SDS011;22296;50.824;5.644;2023-03-14T06:55:39;0.85;;;0.40;;
36259;SDS011;22296;50.824;5.644;2023-03-14T06:58:07;0.90;;;0.50;;
36259;SDS011;22296;50.824;5.644;2023-03-14T07:00:40;3.13;;;0.50;;
36259;SDS011;22296;50.824;5.644;2023-03-14T07:03:09;1.52;;;0.47;;
36259;SDS011;22296;50.824;5.644;2023-03-14T07:05:40;2.47;;;0.45;;
36259;SDS011;22296;50.824;5.644;2023-03-14T07:08:10;1.48;;;0.40;;
36259;SDS011;22296;50.824;5.644;2023-03-14T07:10:37;2.47;;;0.55;;
36259;SDS011;22296;50.824;5.644;2023-03-14T07:13:06;3.27;;;0.60;;
36259;SDS011;22296;50.824;5.644;2023-03-14T07:15:43;1.33;;;0.40;;
36259;SDS011;22296;50.824;5.644;2023-03-14T07:18:11;0.77;;;0.45;;
36259;SDS011;22296;50.824;5.644;2023-03-14T07:20:38;2.50;;;0.60;;
36259;SDS011;22296;50.824;5.644;2023-03-14T07:23:05;1.23;;;0.70;;
36259;SDS011;22296;50.824;5.644;2023-03-14T07:25:46;1.02;;;0.38;;
36259;SDS011;22296;50.824;5.644;2023-03-14T07:28:14;2.75;;;0.75;;
36259;SDS011;22296;50.824;5.644;2023-03-14T07:30:42;0.60;;;0.40;;
36259;SDS011;22296;50.824;5.644;2023-03-14T07:33:17;0.40;;;0.40;;
36259;SDS011;22296;50.824;5.644;2023-03-14T07:35:44;1.05;;;0.40;;
36259;SDS011;22296;50.824;5.644;2023-03-14T07:38:12;0.53;;;0.43;;
36259;SDS011;22296;50.824;5.644;2023-03-14T07:45:59;1.38;;;0.40;;
36259;SDS011;22296;50.824;5.644;2023-03-14T07:48:26;2.55;;;0.45;;
36259;SDS011;22296;50.824;5.644;2023-03-14T07:50:54;1.83;;;0.50;;
36259;SDS011;22296;50.824;5.644;2023-03-14T07:53:21;0.50;;;0.40;;
36259;SDS011;22296;50.824;5.644;2023-03-14T07:55:52;0.45;;;0.30;;
36259;SDS011;22296;50.824;5.644;2023-03-14T07:58:20;0.50;;;0.40;;
36259;SDS011;22296;50.824;5.644;2023-03-14T08:00:48;1.25;;;0.40;;
36259;SDS011;22296;50.824;5.644;2023-03-14T08:03:16;2.28;;;0.40;;
36259;SDS011;22296;50.824;5.644;2023-03-14T08:05:43;1.42;;;0.45;;
36259;SDS011;22296;50.824;5.644;2023-03-14T08:08:11;1.70;;;0.43;;
36259;SDS011;22296;50.824;5.644;2023-03-14T08:10:37;1.35;;;0.50;;
36259;SDS011;22296;50.824;5.644;2023-03-14T08:13:05;2.00;;;0.50;;
36259;SDS011;22296;50.824;5.644;2023-03-14T08:15:32;2.88;;;0.52;;
36259;SDS011;22296;50.824;5.644;2023-03-14T08:17:59;2.53;;;0.40;;
36259;SDS011;22296;50.824;5.644;2023-03-14T08:20:27;2.40;;;0.40;;
36259;SDS011;22296;50.824;5.644;2023-03-14T08:22:55;1.57;;;0.30;;
36259;SDS011;22296;50.824;5.644;2023-03-14T08:25:24;0.77;;;0.30;;
36259;SDS011;22296;50.824;5.644;2023-03-14T08:27:52;3.30;;;0.60;;
36259;SDS011;22296;50.824;5.644;2023-03-14T08:30:19;7.70;;;1.17;;
36259;SDS011;22296;50.824;5.644;2023-03-14T08:32:48;4.13;;;0.60;;
36259;SDS011;22296;50.824;5.644;2023-03-14T08:35:15;3.17;;;0.75;;
36259;SDS011;22296;50.824;5.644;2023-03-14T08:37:42;3.60;;;0.60;;
36259;SDS011;22296;50.824;5.644;2023-03-14T08:40:09;7.70;;;0.80;;
36259;SDS011;22296;50.824;5.644;2023-03-14T08:42:37;7.53;;;1.05;;
36259;SDS011;22296;50.824;5.644;2023-03-14T08:45:05;4.82;;;0.80;;
36259;SDS011;22296;50.824;5.644;2023-03-14T08:47:33;5.93;;;0.77;;
36259;SDS011;22296;50.824;5.644;2023-03-14T08:50:00;5.07;;;0.82;;
36259;SDS011;22296;50.824;5.644;2023-03-14T08:52:26;2.60;;;0.70;;
36259;SDS011;22296;50.824;5.644;2023-03-14T08:54:53;4.20;;;0.68;;
36259;SDS011;22296;50.824;5.644;2023-03-14T08:57:20;5.65;;;1.00;;
36259;SDS011;22296;50.824;5.644;2023-03-14T08:59:48;4.35;;;0.90;;
36259;SDS011;22296;50.824;5.644;2023-03-14T09:02:14;5.22;;;0.63;;
36259;SDS011;22296;50.824;5.644;2023-03-14T09:05:00;2.53;;;0.60;;
36259;SDS011;22296;50.824;5.644;2023-03-14T09:07:27;2.28;;;0.40;;
36259;SDS011;22296;50.824;5.644;2023-03-14T09:09:54;10.05;;;2.10;;
36259;SDS011;22296;50.824;5.644;2023-03-14T09:12:20;4.75;;;0.90;;
36259;SDS011;22296;50.824;5.644;2023-03-14T09:14:47;8.32;;;1.35;;
36259;SDS011;22296;50.824;5.644;2023-03-14T09:17:14;4.85;;;1.02;;
36259;SDS011;22296;50.824;5.644;2023-03-14T09:19:41;2.90;;;0.63;;
36259;SDS011;22296;50.824;5.644;2023-03-14T09:22:07;4.45;;;0.85;;
36259;SDS011;22296;50.824;5.644;2023-03-14T09:24:34;1.83;;;0.70;;
36259;SDS011;22296;50.824;5.644;2023-03-14T09:27:06;2.53;;;0.70;;
36259;SDS011;22296;50.824;5.644;2023-03-14T09:29:34;3.50;;;0.80;;
36259;SDS011;22296;50.824;5.644;2023-03-14T09:32:01;3.33;;;0.70;;
36259;SDS011;22296;50.824;5.644;2023-03-14T09:34:27;4.75;;;0.85;;
36259;SDS011;22296;50.824;5.644;2023-03-14T09:36:54;2.63;;;0.75;;
36259;SDS011;22296;50.824;5.644;2023-03-14T09:39:21;4.90;;;1.05;;
36259;SDS011;22296;50.824;5.644;2023-03-14T09:41:51;4.25;;;0.70;;
36259;SDS011;22296;50.824;5.644;2023-03-14T09:44:22;3.55;;;0.90;;
36259;SDS011;22296;50.824;5.644;2023-03-14T09:46:54;2.83;;;0.63;;
36259;SDS011;22296;50.824;5.644;2023-03-14T09:49:25;5.93;;;0.88;;
36259;SDS011;22296;50.824;5.644;2023-03-14T09:51:56;3.50;;;1.20;;
36259;SDS011;22296;50.824;5.644;2023-03-14T09:54:30;4.00;;;0.80;;
36259;SDS011;22296;50.824;5.644;2023-03-14T09:57:05;4.50;;;0.98;;
36259;SDS011;22296;50.824;5.644;2023-03-14T09:59:36;2.95;;;0.82;;
36259;SDS011;22296;50.824;5.644;2023-03-14T10:02:15;4.85;;;0.63;;
36259;SDS011;22296;50.824;5.644;2023-03-14T10:04:53;5.72;;;0.90;;
36259;SDS011;22296;50.824;5.644;2023-03-14T10:07:28;3.00;;;1.02;;
36259;SDS011;22296;50.824;5.644;2023-03-14T10:09:56;6.65;;;0.80;;
36259;SDS011;22296;50.824;5.644;2023-03-14T10:12:33;4.60;;;0.80;;
36259;SDS011;22296;50.824;5.644;2023-03-14T10:15:03;4.85;;;1.02;;
36259;SDS011;22296;50.824;5.644;2023-03-14T10:20:34;4.28;;;0.70;;
36259;SDS011;22296;50.824;5.644;2023-03-14T10:25:40;3.45;;;0.65;;
36259;SDS011;22296;50.824;5.644;2023-03-14T10:28:26;1.90;;;0.75;;
36259;SDS011;22296;50.824;5.644;2023-03-14T10:30:55;4.35;;;0.90;;
36259;SDS011;22296;50.824;5.644;2023-03-14T10:33:25;4.18;;;0.73;;
36259;SDS011;22296;50.824;5.644;2023-03-14T10:38:57;3.20;;;0.60;;
36259;SDS011;22296;50.824;5.644;2023-03-14T10:41:41;1.60;;;0.47;;
36259;SDS011;22296;50.824;5.644;2023-03-14T10:44:14;2.50;;;0.60;;
36259;SDS011;22296;50.824;5.644;2023-03-14T10:46:46;1.33;;;0.52;;
36259;SDS011;22296;50.824;5.644;2023-03-14T10:49:36;1.20;;;0.70;;
36259;SDS011;22296;50.824;5.644;2023-03-14T10:55:11;2.25;;;0.85;;
36259;SDS011;22296;50.824;5.644;2023-03-14T10:57:41;2.97;;;0.77;;
36259;SDS011;22296;50.824;5.644;2023-03-14T11:00:16;1.48;;;0.50;;
36259;SDS011;22296;50.824;5.644;2023-03-14T11:10:51;1.85;;;0.45;;
36259;SDS011;22296;50.824;5.644;2023-03-14T11:16:09;2.83;;;0.73;;
36259;SDS011;22296;50.824;5.644;2023-03-14T11:24:08;3.20;;;0.60;;
36259;SDS011;22296;50.824;5.644;2023-03-14T11:26:50;2.67;;;0.80;;
36259;SDS011;22296;50.824;5.644;2023-03-14T11:29:33;2.80;;;0.60;;
36259;SDS011;22296;50.824;5.644;2023-03-14T11:32:12;1.13;;;0.47;;
36259;SDS011;22296;50.824;5.644;2023-03-14T11:34:57;2.40;;;0.70;;
36259;SDS011;22296;50.824;5.644;2023-03-14T11:37:32;1.48;;;0.60;;
36259;SDS011;22296;50.824;5.644;2023-03-14T11:45:37;2.10;;;0.47;;
36259;SDS011;22296;50.824;5.644;2023-03-14T11:50:57;3.25;;;0.60;;
36259;SDS011;22296;50.824;5.644;2023-03-14T11:56:18;2.95;;;0.93;;
36259;SDS011;22296;50.824;5.644;2023-03-14T11:58:54;1.90;;;0.73;;
36259;SDS011;22296;50.824;5.644;2023-03-14T12:01:27;1.30;;;0.70;;
36259;SDS011;22296;50.824;5.644;2023-03-14T12:04:05;1.88;;;0.63;;
36259;SDS011;22296;50.824;5.644;2023-03-14T12:06:44;1.13;;;0.50;;
36259;SDS011;22296;50.824;5.644;2023-03-14T12:09:15;1.38;;;0.60;;
36259;SDS011;22296;50.824;5.644;2023-03-14T12:17:22;1.83;;;0.60;;
36259;SDS011;22296;50.824;5.644;2023-03-14T12:20:19;4.38;;;1.35;;
36259;SDS011;22296;50.824;5.644;2023-03-14T12:22:54;3.15;;;0.70;;
36259;SDS011;22296;50.824;5.644;2023-03-14T12:25:26;1.48;;;0.82;;
36259;SDS011;22296;50.824;5.644;2023-03-14T12:30:29;1.00;;;0.52;;
36259;SDS011;22296;50.824;5.644;2023-03-14T12:38:16;1.00;;;0.40;;
36259;SDS011;22296;50.824;5.644;2023-03-14T12:49:49;2.40;;;0.70;;
36259;SDS011;22296;50.824;5.644;2023-03-14T12:52:35;3.63;;;0.77;;
36259;SDS011;22296;50.824;5.644;2023-03-14T12:55:10;2.25;;;0.77;;
36259;SDS011;22296;50.824;5.644;2023-03-14T12:57:55;2.58;;;0.75;;
36259;SDS011;22296;50.824;5.644;2023-03-14T13:03:03;1.98;;;0.85;;
36259;SDS011;22296;50.824;5.644;2023-03-14T13:05:55;2.15;;;0.70;;
36259;SDS011;22296;50.824;5.644;2023-03-14T13:11:07;2.10;;;0.60;;
36259;SDS011;22296;50.824;5.644;2023-03-14T13:13:58;3.45;;;1.13;;
36259;SDS011;22296;50.824;5.644;2023-03-14T13:16:25;2.13;;;0.68;;
36259;SDS011;22296;50.824;5.644;2023-03-14T13:19:01;1.52;;;0.90;;
36259;SDS011;22296;50.824;5.644;2023-03-14T13:21:34;2.58;;;0.65;;
36259;SDS011;22296;50.824;5.644;2023-03-14T13:26:49;1.70;;;0.80;;
36259;SDS011;22296;50.824;5.644;2023-03-14T13:29:38;2.90;;;0.93;;
36259;SDS011;22296;50.824;5.644;2023-03-14T13:32:20;2.08;;;0.90;;
36259;SDS011;22296;50.824;5.644;2023-03-14T13:34:55;2.65;;;1.25;;
36259;SDS011;22296;50.824;5.644;2023-03-14T13:37:23;1.38;;;0.73;;
36259;SDS011;22296;50.824;5.644;2023-03-14T13:39:51;1.70;;;0.87;;
36259;SDS011;22296;50.824;5.644;2023-03-14T13:42:24;2.05;;;0.93;;
36259;SDS011;22296;50.824;5.644;2023-03-14T13:44:54;1.75;;;0.70;;
36259;SDS011;22296;50.824;5.644;2023-03-14T13:47:25;1.87;;;1.00;;
36259;SDS011;22296;50.824;5.644;2023-03-14T13:49:52;1.88;;;0.90;;
36259;SDS011;22296;50.824;5.644;2023-03-14T13:52:38;3.75;;;1.15;;
36259;SDS011;22296;50.824;5.644;2023-03-14T13:55:05;2.40;;;1.00;;
36259;SDS011;22296;50.824;5.644;2023-03-14T13:57:47;2.45;;;1.30;;
36259;SDS011;22296;50.824;5.644;2023-03-14T14:00:22;2.47;;;1.05;;
36259;SDS011;22296;50.824;5.644;2023-03-14T14:02:54;2.22;;;0.70;;
36259;SDS011;22296;50.824;5.644;2023-03-14T14:05:22;4.03;;;0.90;;
36259;SDS011;22296;50.824;5.644;2023-03-14T14:07:51;3.97;;;1.13;;
36259;SDS011;22296;50.824;5.644;2023-03-14T14:10:18;3.10;;;1.00;;
36259;SDS011;22296;50.824;5.644;2023-03-14T14:12:53;2.95;;;0.90;;
36259;SDS011;22296;50.824;5.644;2023-03-14T14:15:26;1.95;;;0.90;;
36259;SDS011;22296;50.824;5.644;2023-03-14T14:17:58;2.30;;;0.77;;
36259;SDS011;22296;50.824;5.644;2023-03-14T14:20:34;2.63;;;0.80;;
36259;SDS011;22296;50.824;5.644;2023-03-14T14:23:04;3.70;;;1.10;;
36259;SDS011;22296;50.824;5.644;2023-03-14T14:28:13;2.67;;;0.80;;
36259;SDS011;22296;50.824;5.644;2023-03-14T14:30:43;2.22;;;1.00;;
36259;SDS011;22296;50.824;5.644;2023-03-14T14:33:17;1.67;;;0.90;;
36259;SDS011;22296;50.824;5.644;2023-03-14T14:35:56;3.75;;;1.00;;
36259;SDS011;22296;50.824;5.644;2023-03-14T14:38:25;1.83;;;1.00;;
36259;SDS011;22296;50.824;5.644;2023-03-14T14:40:53;2.30;;;1.00;;
36259;SDS011;22296;50.824;5.644;2023-03-14T14:43:26;2.15;;;1.05;;
36259;SDS011;22296;50.824;5.644;2023-03-14T14:45:56;2.95;;;1.00;;
36259;SDS011;22296;50.824;5.644;2023-03-14T14:48:27;3.10;;;1.27;;
36259;SDS011;22296;50.824;5.644;2023-03-14T14:51:01;1.98;;;1.00;;
36259;SDS011;22296;50.824;5.644;2023-03-14T14:53:31;2.55;;;0.90;;
36259;SDS011;22296;50.824;5.644;2023-03-14T14:56:04;3.35;;;1.23;;
36259;SDS011;22296;50.824;5.644;2023-03-14T14:58:36;2.47;;;1.08;;
36259;SDS011;22296;50.824;5.644;2023-03-14T15:03:46;2.10;;;1.08;;
36259;SDS011;22296;50.824;5.644;2023-03-14T15:06:16;3.15;;;1.17;;
36259;SDS011;22296;50.824;5.644;2023-03-14T15:08:44;3.67;;;1.02;;
36259;SDS011;22296;50.824;5.644;2023-03-14T15:11:15;2.88;;;1.10;;
36259;SDS011;22296;50.824;5.644;2023-03-14T15:13:44;2.05;;;1.15;;
36259;SDS011;22296;50.824;5.644;2023-03-14T15:16:11;4.05;;;1.10;;
36259;SDS011;22296;50.824;5.644;2023-03-14T15:18:40;1.67;;;1.23;;
36259;SDS011;22296;50.824;5.644;2023-03-14T15:21:09;2.95;;;1.20;;
36259;SDS011;22296;50.824;5.644;2023-03-14T15:23:37;3.60;;;1.30;;
36259;SDS011;22296;50.824;5.644;2023-03-14T15:26:08;4.78;;;1.40;;
36259;SDS011;22296;50.824;5.644;2023-03-14T15:28:39;2.92;;;1.38;;
36259;SDS011;22296;50.824;5.644;2023-03-14T15:31:10;3.08;;;0.88;;
36259;SDS011;22296;50.824;5.644;2023-03-14T15:33:53;3.10;;;0.90;;
36259;SDS011;22296;50.824;5.644;2023-03-14T15:36:23;3.10;;;1.02;;
36259;SDS011;22296;50.824;5.644;2023-03-14T15:38:53;4.28;;;1.30;;
36259;SDS011;22296;50.824;5.644;2023-03-14T15:41:21;5.00;;;1.17;;
36259;SDS011;22296;50.824;5.644;2023-03-14T15:43:49;2.17;;;1.10;;
36259;SDS011;22296;50.824;5.644;2023-03-14T15:46:16;4.25;;;1.60;;
36259;SDS011;22296;50.824;5.644;2023-03-14T15:48:44;4.30;;;1.13;;
36259;SDS011;22296;50.824;5.644;2023-03-14T15:51:12;4.18;;;1.52;;
36259;SDS011;22296;50.824;5.644;2023-03-14T15:53:39;6.00;;;1.30;;
36259;SDS011;22296;50.824;5.644;2023-03-14T15:56:07;6.85;;;1.85;;
36259;SDS011;22296;50.824;5.644;2023-03-14T15:58:37;7.03;;;1.40;;
36259;SDS011;22296;50.824;5.644;2023-03-14T16:01:07;5.80;;;1.60;;
36259;SDS011;22296;50.824;5.644;2023-03-14T16:03:37;6.38;;;1.70;;
36259;SDS011;22296;50.824;5.644;2023-03-14T16:06:04;6.55;;;1.95;;
36259;SDS011;22296;50.824;5.644;2023-03-14T16:08:31;5.97;;;2.35;;
36259;SDS011;22296;50.824;5.644;2023-03-14T16:10:58;7.55;;;2.45;;
36259;SDS011;22296;50.824;5.644;2023-03-14T16:13:25;25.10;;;11.40;;
36259;SDS011;22296;50.824;5.644;2023-03-14T16:15:57;74.82;;;36.83;;
36259;SDS011;22296;50.824;5.644;2023-03-14T16:18:27;165.88;;;84.55;;
36259;SDS011;22296;50.824;5.644;2023-03-14T16:23:22;384.98;;;198.10;;
36259;SDS011;22296;50.824;5.644;2023-03-14T16:25:50;463.40;;;261.13;;
36259;SDS011;22296;50.824;5.644;2023-03-14T16:28:17;625.10;;;362.88;;
36259;SDS011;22296;50.824;5.644;2023-03-14T16:30:44;733.53;;;455.58;;
36259;SDS011;22296;50.824;5.644;2023-03-14T16:33:13;788.43;;;487.47;;
36259;SDS011;22296;50.824;5.644;2023-03-14T16:35:51;830.65;;;500.27;;
36259;SDS011;22296;50.824;5.644;2023-03-14T16:38:19;814.97;;;510.20;;
36259;SDS011;22296;50.824;5.644;2023-03-14T16:40:54;829.00;;;510.90;;
36259;SDS011;22296;50.824;5.644;2023-03-14T16:43:22;829.13;;;522.35;;
36259;SDS011;22296;50.824;5.644;2023-03-14T16:45:49;818.70;;;514.45;;